createdAt,value
2018-09-27T00:01:13.802Z,4.67
2018-09-27T00:03:42.620Z,4.20
2018-09-27T00:06:11.954Z,4.80
2018-09-27T00:08:41.358Z,5.63
2018-09-27T00:11:10.700Z,4.63
2018-09-27T00:13:39.872Z,3.70
2018-09-27T00:16:09.008Z,3.23
2018-09-27T00:18:38.351Z,4.47
2018-09-27T00:21:07.523Z,4.50
2018-09-27T00:23:36.708Z,4.47
2018-09-27T00:26:05.921Z,4.37
2018-09-27T00:28:35.210Z,4.40
2018-09-27T00:31:04.291Z,3.40
2018-09-27T00:33:33.288Z,4.20
2018-09-27T00:36:02.164Z,4.43
2018-09-27T00:38:31.372Z,4.10
2018-09-27T00:41:00.648Z,4.40
2018-09-27T00:43:29.816Z,3.33
2018-09-27T00:45:59.134Z,3.83
2018-09-27T00:48:28.390Z,4.73
2018-09-27T00:50:57.508Z,4.50
2018-09-27T00:53:26.723Z,4.13
2018-09-27T00:55:56.047Z,4.00
2018-09-27T00:58:24.860Z,4.53
2018-09-27T01:00:53.665Z,7.87
2018-09-27T01:03:22.528Z,5.73
2018-09-27T01:05:51.379Z,5.67
2018-09-27T01:08:20.672Z,4.13
2018-09-27T01:10:49.884Z,4.20
2018-09-27T01:13:19.139Z,3.53
2018-09-27T01:15:48.375Z,4.37
2018-09-27T01:18:17.659Z,3.77
2018-09-27T01:20:46.983Z,3.90
2018-09-27T01:23:16.058Z,4.80
2018-09-27T01:25:45.219Z,3.90
2018-09-27T01:28:14.462Z,3.83
2018-09-27T01:30:43.319Z,4.27
2018-09-27T01:33:12.200Z,4.03
2018-09-27T01:35:41.344Z,4.87
2018-09-27T01:38:10.575Z,3.93
2018-09-27T01:40:39.880Z,4.43
2018-09-27T01:43:09.088Z,4.30
2018-09-27T01:45:38.256Z,4.00
2018-09-27T01:48:07.453Z,3.97
2018-09-27T01:50:36.582Z,5.40
2018-09-27T01:53:05.742Z,5.00
2018-09-27T01:55:35.007Z,4.80
2018-09-27T01:58:03.915Z,4.30
2018-09-27T02:00:32.782Z,4.53
2018-09-27T02:03:01.701Z,4.47
2018-09-27T02:05:30.815Z,5.03
2018-09-27T02:07:59.983Z,4.90
2018-09-27T02:10:29.175Z,4.67
2018-09-27T02:12:58.313Z,4.83
2018-09-27T02:15:27.579Z,5.83
2018-09-27T02:17:56.924Z,4.90
2018-09-27T02:20:26.056Z,5.90
2018-09-27T02:22:55.190Z,5.43
2018-09-27T02:25:24.117Z,5.70
2018-09-27T02:27:53.864Z,5.87
2018-09-27T02:30:22.726Z,6.37
2018-09-27T02:32:51.527Z,5.30
2018-09-27T02:35:20.663Z,5.57
2018-09-27T02:37:49.892Z,4.83
2018-09-27T02:40:19.148Z,4.57
2018-09-27T02:42:48.254Z,4.63
2018-09-27T02:45:17.465Z,4.20
2018-09-27T02:47:46.873Z,5.10
2018-09-27T02:50:16.119Z,5.00
2018-09-27T02:52:45.278Z,4.63
2018-09-27T02:55:14.813Z,4.83
2018-09-27T02:57:43.644Z,4.93
2018-09-27T03:00:12.454Z,4.43
2018-09-27T03:02:41.280Z,3.90
2018-09-27T03:05:10.702Z,6.13
2018-09-27T03:07:39.847Z,4.83
2018-09-27T03:10:09.071Z,5.67
2018-09-27T03:12:38.220Z,4.67
2018-09-27T03:15:07.416Z,4.67
2018-09-27T03:17:36.658Z,5.60
2018-09-27T03:20:05.918Z,4.60
2018-09-27T03:22:35.159Z,4.47
2018-09-27T03:25:04.150Z,5.47
2018-09-27T03:27:33.011Z,4.90
2018-09-27T03:30:01.879Z,5.20
2018-09-27T03:32:30.774Z,6.07
2018-09-27T03:34:59.904Z,5.03
2018-09-27T03:37:28.965Z,3.87
2018-09-27T03:39:58.083Z,3.57
2018-09-27T03:42:27.190Z,4.07
2018-09-27T03:44:56.367Z,3.87
2018-09-27T03:47:25.413Z,3.83
2018-09-27T03:49:54.824Z,3.97
2018-09-27T03:52:24.111Z,4.80
2018-09-27T03:54:53.343Z,3.83
2018-09-27T03:57:22.471Z,4.37
2018-09-27T03:59:51.427Z,5.30
2018-09-27T04:02:20.222Z,5.80
2018-09-27T04:04:49.450Z,4.80
2018-09-27T04:07:18.694Z,6.57
2018-09-27T04:09:47.996Z,7.07
2018-09-27T04:12:17.297Z,5.87
2018-09-27T04:14:46.485Z,6.80
2018-09-27T04:17:15.680Z,6.87
2018-09-27T04:19:44.698Z,5.77
2018-09-27T04:22:13.964Z,5.90
2018-09-27T04:24:43.009Z,6.57
2018-09-27T04:27:11.879Z,6.77
2018-09-27T04:29:40.794Z,5.60
2018-09-27T04:32:09.641Z,7.10
2018-09-27T04:34:39.050Z,7.10
2018-09-27T04:37:08.347Z,7.30
2018-09-27T04:39:37.591Z,8.27
2018-09-27T04:42:06.719Z,8.87
2018-09-27T04:44:35.923Z,6.03
2018-09-27T04:47:05.129Z,8.53
2018-09-27T04:49:34.508Z,7.37
2018-09-27T04:52:03.771Z,7.60
2018-09-27T04:54:33.034Z,6.60
2018-09-27T04:57:02.242Z,6.53
2018-09-27T04:59:31.161Z,7.20
2018-09-27T05:02:00.340Z,6.77
2018-09-27T05:04:29.718Z,8.10
2018-09-27T05:06:58.971Z,8.90
2018-09-27T05:09:28.199Z,9.70
2018-09-27T05:11:57.418Z,7.83
2018-09-27T05:14:26.565Z,5.57
2018-09-27T05:16:56.005Z,7.13
2018-09-27T05:19:24.879Z,6.77
2018-09-27T05:21:54.231Z,5.27
2018-09-27T05:24:23.376Z,5.83
2018-09-27T05:26:52.294Z,5.20
2018-09-27T05:29:21.218Z,5.90
2018-09-27T05:31:50.092Z,4.77
2018-09-27T05:34:19.190Z,4.47
2018-09-27T05:36:48.323Z,4.63
2018-09-27T05:39:17.608Z,5.27
2018-09-27T05:41:46.690Z,5.00
2018-09-27T05:44:15.910Z,6.03
2018-09-27T05:46:45.098Z,5.60
2018-09-27T05:49:14.272Z,6.47
2018-09-27T05:51:43.561Z,6.57
2018-09-27T05:54:12.764Z,5.83
2018-09-27T05:56:41.720Z,5.73
2018-09-27T05:59:10.613Z,6.60
2018-09-27T06:01:39.492Z,5.93
2018-09-27T06:04:08.454Z,5.60
2018-09-27T06:06:37.247Z,5.40
2018-09-27T06:09:09.678Z,5.13
2018-09-27T06:11:38.386Z,5.80
2018-09-27T06:14:07.919Z,6.17
2018-09-27T06:16:38.027Z,7.47
2018-09-27T06:19:07.567Z,5.53
2018-09-27T06:21:36.480Z,6.53
2018-09-27T06:24:05.552Z,6.63
2018-09-27T06:26:34.235Z,6.40
2018-09-27T06:29:02.982Z,6.00
2018-09-27T06:31:31.743Z,6.53
2018-09-27T06:34:00.468Z,7.77
2018-09-27T06:36:29.502Z,9.30
2018-09-27T06:38:58.541Z,11.20
2018-09-27T06:41:27.628Z,12.90
2018-09-27T06:43:56.735Z,12.10
2018-09-27T06:46:26.188Z,12.70
2018-09-27T06:48:55.195Z,14.00
2018-09-27T06:51:24.334Z,11.50
2018-09-27T06:53:53.468Z,11.10
2018-09-27T06:56:22.192Z,7.67
2018-09-27T06:58:50.875Z,7.43
2018-09-27T07:01:19.812Z,7.47
2018-09-27T07:03:48.505Z,6.37
2018-09-27T07:06:17.333Z,8.20
2018-09-27T07:08:46.458Z,5.73
2018-09-27T07:11:15.514Z,6.80
2018-09-27T07:13:44.759Z,7.43
2018-09-27T07:16:13.619Z,6.00
2018-09-27T07:18:43.179Z,6.57
2018-09-27T07:21:12.076Z,7.07
2018-09-27T07:23:41.230Z,6.03
2018-09-27T07:26:09.986Z,5.90
2018-09-27T07:28:38.746Z,5.83
2018-09-27T07:31:07.720Z,6.20
2018-09-27T07:33:36.850Z,4.80
2018-09-27T07:36:06.142Z,5.33
2018-09-27T07:38:34.917Z,5.00
2018-09-27T07:41:04.150Z,5.70
2018-09-27T07:43:33.305Z,4.43
2018-09-27T07:46:02.885Z,4.63
2018-09-27T07:48:32.279Z,4.77
2018-09-27T07:51:01.223Z,4.93
2018-09-27T07:53:30.119Z,5.03
2018-09-27T07:55:58.879Z,4.40
2018-09-27T07:58:27.516Z,4.57
2018-09-27T08:00:56.279Z,5.37
2018-09-27T08:03:25.190Z,4.57
2018-09-27T08:05:54.161Z,3.43
2018-09-27T08:08:22.994Z,4.53
2018-09-27T08:10:52.040Z,3.73
2018-09-27T08:13:20.806Z,4.07
2018-09-27T08:15:49.643Z,3.47
2018-09-27T08:18:19.022Z,3.30
2018-09-27T08:20:47.875Z,5.10
2018-09-27T08:23:16.643Z,3.40
2018-09-27T08:25:45.382Z,2.90
2018-09-27T08:28:14.171Z,3.27
2018-09-27T08:30:42.924Z,3.00
2018-09-27T08:33:11.909Z,2.33
2018-09-27T08:35:41.065Z,2.97
2018-09-27T08:38:09.959Z,3.43
2018-09-27T08:40:39.538Z,3.07
2018-09-27T08:43:08.445Z,2.47
2018-09-27T08:45:37.444Z,3.13
2018-09-27T08:48:06.691Z,3.20
2018-09-27T08:50:35.979Z,4.37
2018-09-27T08:53:04.943Z,3.20
2018-09-27T08:55:34.083Z,3.00
2018-09-27T08:58:03.006Z,2.70
2018-09-27T09:00:31.658Z,2.50
2018-09-27T09:03:00.540Z,3.03
2018-09-27T09:05:29.610Z,3.37
2018-09-27T09:07:58.586Z,2.50
2018-09-27T09:10:27.708Z,2.27
2018-09-27T09:12:56.573Z,2.17
2018-09-27T09:15:25.922Z,2.20
2018-09-27T09:17:55.223Z,2.03
2018-09-27T09:20:23.949Z,2.17
2018-09-27T09:22:53.160Z,2.67
2018-09-27T09:25:22.180Z,2.53
2018-09-27T09:27:50.887Z,2.23
2018-09-27T09:30:19.957Z,2.80
2018-09-27T09:32:48.960Z,2.40
2018-09-27T09:35:18.274Z,2.43
2018-09-27T09:37:47.125Z,2.60
2018-09-27T09:40:16.328Z,2.10
2018-09-27T09:42:45.212Z,2.53
2018-09-27T09:45:14.294Z,1.90
2018-09-27T09:47:43.567Z,1.80
2018-09-27T09:50:12.627Z,2.50
2018-09-27T09:52:41.707Z,1.87
2018-09-27T09:55:10.772Z,2.57
2018-09-27T09:57:39.386Z,2.47
2018-09-27T10:00:08.434Z,2.37
2018-09-27T10:02:37.758Z,2.20
2018-09-27T10:05:06.727Z,2.20
2018-09-27T10:07:35.858Z,2.00
2018-09-27T10:10:04.807Z,2.80
2018-09-27T10:12:33.727Z,2.83
2018-09-27T10:15:02.672Z,3.30
2018-09-27T10:17:31.741Z,2.37
2018-09-27T10:20:00.560Z,4.03
2018-09-27T10:22:29.358Z,2.40
2018-09-27T10:24:58.100Z,2.43
2018-09-27T10:27:26.837Z,2.53
2018-09-27T10:29:55.718Z,2.40
2018-09-27T10:32:24.683Z,2.43
2018-09-27T10:34:53.640Z,2.67
2018-09-27T10:37:22.531Z,2.53
2018-09-27T10:39:51.632Z,2.70
2018-09-27T10:42:20.766Z,1.93
2018-09-27T10:44:49.731Z,2.50
2018-09-27T10:47:18.847Z,3.33
2018-09-27T10:49:47.975Z,2.40
2018-09-27T10:52:16.911Z,2.63
2018-09-27T10:54:45.652Z,2.40
2018-09-27T10:57:14.448Z,2.50
2018-09-27T10:59:43.587Z,1.93
2018-09-27T11:02:12.607Z,2.47
2018-09-27T11:04:41.524Z,2.10
2018-09-27T11:07:10.460Z,2.60
2018-09-27T11:09:39.205Z,1.90
2018-09-27T11:12:08.263Z,1.63
2018-09-27T11:14:37.079Z,3.73
2018-09-27T11:17:05.876Z,2.57
2018-09-27T11:19:34.959Z,2.33
2018-09-27T11:22:04.023Z,1.97
2018-09-27T11:24:32.743Z,1.83
2018-09-27T11:27:01.450Z,2.40
2018-09-27T11:29:35.245Z,2.00
2018-09-27T11:32:09.158Z,1.97
2018-09-27T11:34:38.191Z,2.10
2018-09-27T11:37:07.054Z,2.97
2018-09-27T11:39:36.092Z,2.23
2018-09-27T11:42:05.024Z,2.10
2018-09-27T11:44:34.115Z,2.17
2018-09-27T11:47:02.899Z,3.20
2018-09-27T11:49:31.856Z,1.60
2018-09-27T11:52:00.712Z,2.53
2018-09-27T11:54:30.324Z,2.20
2018-09-27T11:56:59.082Z,1.90
2018-09-27T11:59:27.911Z,2.73
2018-09-27T12:01:56.757Z,2.33
2018-09-27T12:04:25.603Z,2.63
2018-09-27T12:06:54.528Z,2.70
2018-09-27T12:09:23.440Z,2.70
2018-09-27T12:11:52.415Z,2.30
2018-09-27T12:14:22.218Z,2.63
2018-09-27T12:16:51.088Z,3.70
2018-09-27T12:19:19.836Z,2.70
2018-09-27T12:21:48.609Z,2.20
2018-09-27T12:24:17.666Z,2.97
2018-09-27T12:26:46.444Z,2.57
2018-09-27T12:29:16.099Z,2.87
2018-09-27T12:31:44.913Z,3.07
2018-09-27T12:34:13.997Z,2.57
2018-09-27T12:36:42.871Z,2.67
2018-09-27T12:39:13.358Z,3.33
2018-09-27T12:41:42.162Z,2.65
2018-09-27T12:44:11.100Z,3.02
2018-09-27T12:46:40.200Z,3.00
2018-09-27T12:49:09.137Z,2.62
2018-09-27T12:51:38.318Z,2.30
2018-09-27T12:54:07.053Z,2.50
2018-09-27T12:56:35.824Z,2.93
2018-09-27T12:59:04.811Z,5.33
2018-09-27T13:01:33.587Z,2.33
2018-09-27T13:04:02.423Z,2.37
2018-09-27T13:06:31.338Z,2.70
2018-09-27T13:09:00.539Z,2.92
2018-09-27T13:11:29.647Z,2.50
2018-09-27T13:13:58.579Z,2.27
2018-09-27T13:16:27.636Z,2.52
2018-09-27T13:18:57.942Z,3.00
2018-09-27T13:21:25.722Z,3.10
2018-09-27T13:23:54.559Z,2.37
2018-09-27T13:26:23.334Z,2.70
2018-09-27T13:28:52.512Z,2.87
2018-09-27T13:31:21.590Z,2.55
2018-09-27T13:33:50.662Z,2.45
2018-09-27T13:36:19.675Z,3.20
2018-09-27T13:38:48.516Z,2.20
2018-09-27T13:41:17.795Z,2.27
2018-09-27T13:43:46.924Z,3.35
2018-09-27T13:46:15.977Z,2.37
2018-09-27T13:48:44.883Z,2.50
2018-09-27T13:51:13.681Z,2.87
2018-09-27T13:53:42.405Z,2.25
2018-09-27T13:56:11.263Z,3.08
2018-09-27T13:58:40.114Z,3.60
2018-09-27T14:01:09.210Z,1.67
2018-09-27T14:03:38.130Z,2.62
2018-09-27T14:06:07.318Z,2.20
2018-09-27T14:08:36.630Z,3.02
2018-09-27T14:11:05.687Z,3.20
2018-09-27T14:13:34.562Z,2.85
2018-09-27T14:16:03.727Z,3.22
2018-09-27T14:18:33.045Z,2.10
2018-09-27T14:21:01.692Z,2.70
2018-09-27T14:23:30.482Z,1.90
2018-09-27T14:25:59.704Z,2.40
2018-09-27T14:28:28.878Z,2.35
2018-09-27T14:30:58.021Z,3.45
2018-09-27T14:33:27.895Z,2.10
2018-09-27T14:35:57.759Z,2.08
2018-09-27T14:38:26.996Z,2.08
2018-09-27T14:40:56.274Z,1.90
2018-09-27T14:43:25.316Z,2.42
2018-09-27T14:45:54.582Z,2.37
2018-09-27T14:48:23.318Z,2.60
2018-09-27T14:50:52.267Z,1.60
2018-09-27T14:53:20.926Z,2.37
2018-09-27T14:55:49.628Z,2.10
2018-09-27T14:58:18.962Z,2.67
2018-09-27T15:00:47.875Z,2.50
2018-09-27T15:03:16.930Z,2.37
2018-09-27T15:05:46.141Z,2.62
2018-09-27T15:08:14.950Z,2.00
2018-09-27T15:10:43.886Z,2.37
2018-09-27T15:13:13.231Z,1.95
2018-09-27T15:15:42.196Z,2.60
2018-09-27T15:18:11.105Z,1.72
2018-09-27T15:20:40.002Z,2.35
2018-09-27T15:23:08.782Z,2.50
2018-09-27T15:25:37.494Z,1.80
2018-09-27T15:28:06.774Z,2.12
2018-09-27T15:30:35.823Z,1.90
2018-09-27T15:33:04.682Z,2.75
2018-09-27T15:35:33.926Z,2.10
2018-09-27T15:38:02.844Z,2.45
2018-09-27T15:40:31.732Z,1.90
2018-09-27T15:43:00.760Z,2.02
2018-09-27T15:45:29.645Z,2.20
2018-09-27T15:47:58.820Z,3.12
2018-09-27T15:50:27.785Z,2.65
2018-09-27T15:52:56.446Z,3.85
2018-09-27T15:55:25.217Z,2.30
2018-09-27T15:57:54.296Z,3.00
2018-09-27T16:00:23.303Z,2.97
2018-09-27T16:02:52.238Z,2.47
2018-09-27T16:05:21.614Z,2.57
2018-09-27T16:07:50.466Z,3.10
2018-09-27T16:10:19.563Z,2.10
2018-09-27T16:12:48.574Z,2.37
2018-09-27T16:15:17.292Z,3.33
2018-09-27T16:17:46.432Z,3.27
2018-09-27T16:20:15.762Z,3.97
2018-09-27T16:22:44.366Z,3.40
2018-09-27T16:25:13.081Z,3.37
2018-09-27T16:27:42.131Z,3.67
2018-09-27T16:30:11.260Z,3.57
2018-09-27T16:32:40.199Z,2.67
2018-09-27T16:35:09.446Z,3.23
2018-09-27T16:37:38.293Z,4.33
2018-09-27T16:40:07.373Z,3.57
2018-09-27T16:42:36.523Z,7.60
2018-09-27T16:45:05.830Z,2.87
2018-09-27T16:47:34.795Z,4.40
2018-09-27T16:50:03.711Z,3.87
2018-09-27T16:52:32.363Z,2.90
2018-09-27T16:55:01.150Z,2.70
2018-09-27T16:57:30.147Z,2.80
2018-09-27T16:59:59.226Z,3.90
2018-09-27T17:02:28.306Z,4.03
2018-09-27T17:04:57.304Z,3.40
2018-09-27T17:07:26.494Z,3.70
2018-09-27T17:09:55.570Z,3.10
2018-09-27T17:12:24.673Z,2.70
2018-09-27T17:14:53.712Z,3.47
2018-09-27T17:17:22.475Z,3.47
2018-09-27T17:19:51.194Z,2.93
2018-09-27T17:22:19.941Z,3.00
2018-09-27T17:24:48.546Z,3.07
2018-09-27T17:27:17.592Z,2.77
2018-09-27T17:29:46.859Z,3.23
2018-09-27T17:32:16.031Z,2.73
2018-09-27T17:34:45.299Z,4.60
2018-09-27T17:37:14.342Z,3.50
2018-09-27T17:39:43.335Z,3.87
2018-09-27T17:42:12.225Z,4.33
2018-09-27T17:44:41.652Z,3.30
2018-09-27T17:47:10.515Z,3.43
2018-09-27T17:49:39.440Z,3.13
2018-09-27T17:52:08.487Z,3.17
2018-09-27T17:54:37.346Z,3.03
2018-09-27T17:57:06.367Z,6.67
2018-09-27T17:59:35.408Z,7.20
2018-09-27T18:02:04.608Z,10.73
2018-09-27T18:04:33.597Z,12.27
2018-09-27T18:07:02.899Z,13.03
2018-09-27T18:09:31.793Z,15.80
2018-09-27T18:12:00.818Z,16.47
2018-09-27T18:14:29.991Z,15.33
2018-09-27T18:16:58.957Z,11.10
2018-09-27T18:19:27.728Z,11.27
2018-09-27T18:21:56.380Z,10.33
2018-09-27T18:24:25.052Z,8.60
2018-09-27T18:26:53.970Z,10.17
2018-09-27T18:29:23.031Z,9.20
2018-09-27T18:31:51.986Z,11.60
2018-09-27T18:34:20.642Z,13.80
2018-09-27T18:36:49.694Z,12.23
2018-09-27T18:39:18.845Z,11.23
2018-09-27T18:41:47.753Z,8.53
2018-09-27T18:44:17.005Z,8.40
2018-09-27T18:46:45.668Z,8.33
2018-09-27T18:49:14.754Z,7.13
2018-09-27T18:51:43.726Z,5.97
2018-09-27T18:54:12.382Z,7.57
2018-09-27T18:56:41.235Z,7.53
2018-09-27T18:59:10.135Z,7.63
2018-09-27T19:01:39.204Z,7.90
2018-09-27T19:04:08.115Z,7.37
2018-09-27T19:06:37.415Z,6.23
2018-09-27T19:09:07.284Z,5.20
2018-09-27T19:11:36.282Z,6.07
2018-09-27T19:14:05.595Z,5.57
2018-09-27T19:16:34.343Z,5.90
2018-09-27T19:19:03.047Z,5.97
2018-09-27T19:21:31.946Z,6.03
2018-09-27T19:24:00.687Z,6.77
2018-09-27T19:26:29.616Z,6.70
2018-09-27T19:28:58.901Z,5.93
2018-09-27T19:31:28.023Z,7.77
2018-09-27T19:33:56.847Z,7.27
2018-09-27T19:36:25.787Z,7.80
2018-09-27T19:38:54.545Z,7.57
2018-09-27T19:41:23.335Z,8.73
2018-09-27T19:43:52.583Z,8.07
2018-09-27T19:46:21.647Z,5.63
2018-09-27T19:48:50.626Z,6.33
2018-09-27T19:51:19.534Z,6.23
2018-09-27T19:53:48.400Z,5.90
2018-09-27T19:56:17.204Z,5.77
2018-09-27T19:58:46.279Z,5.37
2018-09-27T20:01:15.141Z,5.53
2018-09-27T20:03:44.059Z,5.60
2018-09-27T20:06:13.282Z,6.97
2018-09-27T20:08:42.224Z,6.40
2018-09-27T20:11:11.260Z,6.80
2018-09-27T20:13:40.279Z,5.50
2018-09-27T20:16:09.438Z,5.10
2018-09-27T20:18:38.157Z,5.87
2018-09-27T20:21:06.802Z,5.70
2018-09-27T20:23:35.427Z,6.30
2018-09-27T20:26:04.342Z,6.37
2018-09-27T20:28:33.748Z,6.93
2018-09-27T20:31:02.473Z,7.37
2018-09-27T20:33:31.180Z,8.00
2018-09-27T20:35:59.998Z,6.63
2018-09-27T20:38:28.759Z,7.23
2018-09-27T20:40:57.453Z,6.70
2018-09-27T20:43:27.155Z,7.07
2018-09-27T20:45:55.946Z,7.13
2018-09-27T20:48:24.643Z,8.63
2018-09-27T20:50:53.558Z,9.90
2018-09-27T20:53:22.610Z,8.33
2018-09-27T20:55:51.486Z,9.30
2018-09-27T20:58:20.531Z,8.97
2018-09-27T21:00:49.392Z,8.13
2018-09-27T21:03:18.167Z,8.90
2018-09-27T21:05:47.010Z,8.17
2018-09-27T21:08:15.958Z,10.23
2018-09-27T21:10:44.860Z,8.47
2018-09-27T21:13:14.169Z,7.57
2018-09-27T21:15:42.946Z,7.80
2018-09-27T21:18:11.638Z,7.57
2018-09-27T21:20:40.328Z,7.80
2018-09-27T21:23:09.195Z,8.53
2018-09-27T21:25:37.947Z,9.10
2018-09-27T21:28:07.328Z,11.23
2018-09-27T21:30:36.475Z,9.73
2018-09-27T21:33:05.339Z,9.60
2018-09-27T21:35:34.359Z,8.70
2018-09-27T21:38:03.439Z,8.30
2018-09-27T21:40:32.279Z,7.67
2018-09-27T21:43:01.284Z,7.23
2018-09-27T21:45:30.238Z,7.87
2018-09-27T21:47:58.917Z,8.70
2018-09-27T21:50:27.811Z,7.23
2018-09-27T21:52:56.410Z,6.80
2018-09-27T21:55:25.166Z,6.97
2018-09-27T21:57:54.121Z,7.30
2018-09-27T22:00:22.876Z,6.43
2018-09-27T22:02:51.527Z,6.83
2018-09-27T22:05:20.600Z,6.57
2018-09-27T22:07:49.354Z,5.10
2018-09-27T22:10:17.995Z,5.93
2018-09-27T22:12:47.015Z,6.17
2018-09-27T22:15:15.828Z,6.27
2018-09-27T22:17:44.398Z,5.53
2018-09-27T22:20:13.256Z,5.67
2018-09-27T22:22:41.847Z,6.17
2018-09-27T22:25:10.637Z,5.83
2018-09-27T22:27:39.588Z,5.70
2018-09-27T22:30:08.769Z,6.30
2018-09-27T22:32:37.554Z,6.30
2018-09-27T22:35:06.580Z,5.33
2018-09-27T22:37:35.363Z,5.13
2018-09-27T22:40:04.140Z,5.53
2018-09-27T22:42:33.058Z,5.77
2018-09-27T22:45:01.924Z,5.90
2018-09-27T22:47:30.507Z,5.27
2018-09-27T22:49:59.282Z,4.90
2018-09-27T22:52:27.843Z,5.07
2018-09-27T22:54:56.660Z,6.10
2018-09-27T22:57:25.368Z,5.00
2018-09-27T22:59:54.088Z,4.40
2018-09-27T23:02:22.831Z,5.20
2018-09-27T23:04:51.610Z,4.27
2018-09-27T23:07:20.366Z,5.10
2018-09-27T23:09:49.097Z,4.73
2018-09-27T23:12:17.959Z,4.87
2018-09-27T23:14:46.782Z,4.30
2018-09-27T23:17:15.972Z,4.43
2018-09-27T23:19:44.847Z,5.10
2018-09-27T23:22:13.482Z,4.77
2018-09-27T23:24:42.394Z,3.87
2018-09-27T23:27:11.371Z,4.07
2018-09-27T23:29:40.503Z,4.27
2018-09-27T23:32:09.330Z,4.10
2018-09-27T23:34:38.451Z,4.00
2018-09-27T23:37:07.929Z,3.47
2018-09-27T23:39:36.760Z,3.63
2018-09-27T23:42:05.931Z,3.80
2018-09-27T23:44:34.719Z,3.50
2018-09-27T23:47:03.596Z,3.83
2018-09-27T23:49:32.594Z,4.30
2018-09-27T23:52:01.261Z,3.97
2018-09-27T23:54:30.181Z,3.97
2018-09-27T23:56:59.250Z,4.60
2018-09-27T23:59:28.107Z,5.00
